Bruce Mines, Canada
Current Conditions -  °F | °C
As of 2:55 PM on Wednesday 28 Jan 2015 (Local Time) from KDRM Reporting Station
Clear Clear  
Wind Chill: -4°   Ceiling: Unl
Heat Index: -4°   Visibility: 10mi
Dew Point: -13°   Wind: 3mph
Humidity: 49%   Direction: 150°SSE
Pressure: 30.19"   Gusts: NA
Location:  46.3°N, 83.79°W
Report Text: KDRM 281955Z AUTO 15003KT 10SM CLR M04/M13 A3019 RMK AO2 T10401134
Loading
Personal Weather Stations






























Interactive Weather Map New forecast layout! Learn more

10-Day Weather Forecast

Advertisements
Track Severe Weather on mobile